createdAt,value
2022-12-14T00:00:16.150Z,-4.07
2022-12-14T00:05:19.938Z,-4.09
2022-12-14T00:10:22.528Z,-4.06
2022-12-14T00:15:25.207Z,-4.05
2022-12-14T00:20:28.083Z,-4.01
2022-12-14T00:25:31.008Z,-3.90
2022-12-14T00:30:33.721Z,-3.86
2022-12-14T00:35:36.291Z,-4.15
2022-12-14T00:40:39.470Z,-4.40
2022-12-14T00:45:44.940Z,-4.45
2022-12-14T00:50:49.413Z,-4.33
2022-12-14T00:55:52.450Z,-4.47
2022-12-14T01:01:07.206Z,-4.43
2022-12-14T01:06:20.863Z,-4.39
2022-12-14T01:11:23.428Z,-4.47
2022-12-14T01:16:25.966Z,-4.43
2022-12-14T01:21:29.636Z,-4.49
2022-12-14T01:26:36.600Z,-4.58
2022-12-14T01:31:39.348Z,-4.50
2022-12-14T01:36:42.020Z,-4.44
2022-12-14T01:41:47.532Z,-4.53
2022-12-14T01:47:13.261Z,-4.64
2022-12-14T01:52:28.056Z,-4.72
2022-12-14T01:57:45.169Z,-4.71
2022-12-14T02:03:21.060Z,-4.75
2022-12-14T02:08:25.425Z,-4.69
2022-12-14T02:13:38.311Z,-4.78
2022-12-14T02:18:41.025Z,-4.78
2022-12-14T02:24:06.595Z,-5.16
2022-12-14T02:29:53.056Z,-5.14
2022-12-14T02:35:02.381Z,-5.16
2022-12-14T02:40:13.511Z,-5.23
2022-12-14T02:45:31.314Z,-5.37
2022-12-14T02:51:02.582Z,-5.25
2022-12-14T02:56:10.467Z,-5.17
2022-12-14T03:01:15.976Z,-5.14
2022-12-14T03:06:30.645Z,-5.24
2022-12-14T03:12:02.948Z,-5.25
2022-12-14T03:17:17.619Z,-5.34
2022-12-14T03:22:28.989Z,-5.38
2022-12-14T03:27:36.045Z,-5.10
2022-12-14T03:32:46.497Z,-5.11
2022-12-14T03:37:58.698Z,-4.85
2022-12-14T03:43:15.355Z,-4.63
2022-12-14T03:49:00.073Z,-4.40
2022-12-14T03:54:15.241Z,-4.45
2022-12-14T03:59:27.516Z,-4.53
2022-12-14T04:05:01.098Z,-4.88
2022-12-14T04:10:31.722Z,-4.66
2022-12-14T04:15:55.140Z,-4.69
2022-12-14T04:21:17.009Z,-4.75
2022-12-14T04:26:22.962Z,-4.74
2022-12-14T04:31:30.677Z,-4.82
2022-12-14T04:36:59.017Z,-4.55
2022-12-14T04:42:05.025Z,-4.48
2022-12-14T04:47:11.150Z,-4.49
2022-12-14T04:52:19.966Z,-4.42
2022-12-14T04:57:36.555Z,-4.44
2022-12-14T05:03:07.073Z,-4.30
2022-12-14T05:08:54.130Z,-4.30
2022-12-14T05:14:00.738Z,-4.62
2022-12-14T05:19:09.771Z,-4.37
2022-12-14T05:24:12.308Z,-4.29
2022-12-14T05:29:17.001Z,-4.36
2022-12-14T05:34:19.667Z,-4.40
2022-12-14T05:39:22.214Z,-4.20
2022-12-14T05:44:24.762Z,-4.12
2022-12-14T05:49:27.342Z,-4.08
2022-12-14T05:54:29.868Z,-3.99
2022-12-14T05:59:32.947Z,-3.88
2022-12-14T06:04:35.619Z,-3.89
2022-12-14T06:09:38.523Z,-3.90
2022-12-14T06:14:41.143Z,-3.70
2022-12-14T06:19:49.616Z,-3.60
2022-12-14T06:24:52.995Z,-3.55
2022-12-14T06:29:55.735Z,-3.45
2022-12-14T06:34:58.275Z,-3.59
2022-12-14T06:40:00.858Z,-3.32
2022-12-14T06:45:03.525Z,-3.29
2022-12-14T06:50:06.694Z,-3.33
2022-12-14T06:55:09.354Z,-3.22
2022-12-14T07:00:12.333Z,-3.19
2022-12-14T07:05:15.524Z,-3.18
2022-12-14T07:10:18.151Z,-3.56
2022-12-14T07:15:20.762Z,-3.31
2022-12-14T07:20:23.229Z,-3.01
2022-12-14T07:25:25.859Z,-3.25
2022-12-14T07:30:28.554Z,-3.45
2022-12-14T07:35:31.234Z,-3.33
2022-12-14T07:40:34.507Z,-3.39
2022-12-14T07:45:37.050Z,-3.43
2022-12-14T07:50:39.645Z,-3.47
2022-12-14T07:55:42.282Z,-3.24
2022-12-14T08:00:45.239Z,-3.46
2022-12-14T08:05:47.806Z,-3.28
2022-12-14T08:10:50.377Z,-3.16
2022-12-14T08:15:53.058Z,-3.23
2022-12-14T08:20:55.647Z,-3.08
2022-12-14T08:26:00.518Z,-2.87
2022-12-14T08:31:12.687Z,-2.80
2022-12-14T08:36:18.398Z,-2.76
2022-12-14T08:41:21.601Z,-2.87
2022-12-14T08:46:30.947Z,-3.16
2022-12-14T08:51:37.559Z,-3.23
2022-12-14T08:56:40.284Z,-3.43
2022-12-14T09:01:43.605Z,-3.30
2022-12-14T09:06:46.464Z,-3.50
2022-12-14T09:11:48.968Z,-2.95
2022-12-14T09:16:51.637Z,-2.83
2022-12-14T09:21:54.287Z,-2.78
2022-12-14T09:27:00.834Z,-2.71
2022-12-14T09:32:03.543Z,-2.68
2022-12-14T09:37:08.830Z,-2.63
2022-12-14T09:42:38.395Z,-2.69
2022-12-14T09:47:46.407Z,-3.51
2022-12-14T09:52:52.331Z,-2.99
2022-12-14T09:58:06.740Z,-3.11
2022-12-14T10:03:46.819Z,-2.80
2022-12-14T10:09:03.116Z,-2.68
2022-12-14T10:14:44.553Z,-2.61
2022-12-14T10:19:56.345Z,-2.46
2022-12-14T10:25:16.968Z,-2.42
2022-12-14T10:30:21.333Z,-2.25
2022-12-14T10:35:38.798Z,-2.44
2022-12-14T10:40:49.606Z,-2.57
2022-12-14T10:46:12.012Z,-2.48
2022-12-14T10:51:27.690Z,-2.69
2022-12-14T10:56:33.926Z,-3.17
2022-12-14T11:01:36.780Z,-3.28
2022-12-14T11:06:39.668Z,-3.34
2022-12-14T11:11:43.206Z,-3.26
2022-12-14T11:16:45.796Z,-3.52
2022-12-14T11:21:50.448Z,-3.65
2022-12-14T11:26:59.196Z,-3.61
2022-12-14T11:32:03.113Z,-3.47
2022-12-14T11:37:14.170Z,-3.26
2022-12-14T11:42:19.315Z,-3.34
2022-12-14T11:47:24.572Z,-3.29
2022-12-14T11:52:41.892Z,-3.37
2022-12-14T11:57:53.369Z,-3.40
2022-12-14T12:02:59.833Z,-3.58
2022-12-14T12:08:03.258Z,-3.39
2022-12-14T12:13:16.670Z,-3.60
2022-12-14T12:18:35.505Z,-3.80
2022-12-14T12:23:49.964Z,-3.88
2022-12-14T12:29:01.879Z,-3.90
2022-12-14T12:34:15.226Z,-3.78
2022-12-14T12:39:24.108Z,-3.92
2022-12-14T12:44:39.254Z,-3.98
2022-12-14T12:49:41.805Z,-4.18
2022-12-14T12:55:07.109Z,-4.12
2022-12-14T13:00:27.082Z,-4.12
2022-12-14T13:05:48.527Z,-4.29
2022-12-14T13:11:24.478Z,-4.50
2022-12-14T13:16:37.146Z,-4.44
2022-12-14T13:21:49.651Z,-4.42
2022-12-14T13:27:15.286Z,-4.50
2022-12-14T13:32:49.764Z,-4.44
2022-12-14T13:38:13.268Z,-4.71
2022-12-14T13:43:28.314Z,-4.66
2022-12-14T13:48:38.000Z,-4.57
2022-12-14T13:53:48.228Z,-4.29
2022-12-14T13:58:55.226Z,-4.49
2022-12-14T14:04:16.036Z,-4.51
2022-12-14T14:09:33.803Z,-4.36
2022-12-14T14:14:51.821Z,-4.22
2022-12-14T14:19:56.480Z,-4.26
2022-12-14T14:25:12.480Z,-3.98
2022-12-14T14:30:27.303Z,-3.99
2022-12-14T14:35:39.221Z,-3.93
2022-12-14T14:41:15.610Z,-4.00
2022-12-14T14:46:20.849Z,-3.86
2022-12-14T14:51:26.748Z,-3.77
2022-12-14T14:56:40.050Z,-3.85
2022-12-14T15:02:01.587Z,-3.98
2022-12-14T15:07:07.591Z,-3.77
2022-12-14T15:12:33.952Z,-3.82
2022-12-14T15:17:36.992Z,-3.83
2022-12-14T15:22:43.512Z,-3.57
2022-12-14T15:27:48.408Z,-3.41
2022-12-14T15:32:59.288Z,-3.31
2022-12-14T15:38:04.469Z,-3.42
2022-12-14T15:43:18.902Z,-3.21
2022-12-14T15:48:30.168Z,-3.33
2022-12-14T15:53:53.498Z,-3.39
2022-12-14T15:59:01.500Z,-3.33
2022-12-14T16:04:12.433Z,-3.56
2022-12-14T16:09:24.675Z,-3.53
2022-12-14T16:14:30.094Z,-3.62
2022-12-14T16:19:57.309Z,-3.78
2022-12-14T16:25:01.459Z,-3.58
2022-12-14T16:30:18.075Z,-3.96
2022-12-14T16:35:23.820Z,-3.77
2022-12-14T16:40:41.653Z,-4.11
2022-12-14T16:45:46.081Z,-3.77
2022-12-14T16:51:17.934Z,-4.17
2022-12-14T16:56:26.011Z,-4.19
2022-12-14T17:01:47.158Z,-4.27
2022-12-14T17:06:55.417Z,-4.54
2022-12-14T17:12:00.459Z,-4.31
2022-12-14T17:17:04.320Z,-4.23
2022-12-14T17:22:18.212Z,-4.35
2022-12-14T17:27:22.399Z,-4.28
2022-12-14T17:32:30.259Z,-4.43
2022-12-14T17:37:36.393Z,-4.18
2022-12-14T17:42:41.013Z,-4.31
2022-12-14T17:47:43.736Z,-4.43
2022-12-14T17:52:47.196Z,-4.70
2022-12-14T17:57:50.924Z,-4.73
2022-12-14T18:02:53.750Z,-4.40
2022-12-14T18:07:56.555Z,-4.46
2022-12-14T18:13:01.792Z,-4.51
2022-12-14T18:18:05.383Z,-4.57
2022-12-14T18:23:18.124Z,-4.93
2022-12-14T18:28:21.820Z,-4.94
2022-12-14T18:33:27.438Z,-5.16
2022-12-14T18:38:30.363Z,-5.16
2022-12-14T18:43:34.343Z,-5.38
2022-12-14T18:48:41.867Z,-5.57
2022-12-14T18:53:44.468Z,-5.25
2022-12-14T18:58:47.598Z,-5.25
2022-12-14T19:03:50.735Z,-5.19
2022-12-14T19:08:53.868Z,-4.95
2022-12-14T19:13:56.743Z,-4.86
2022-12-14T19:19:00.737Z,-4.59
2022-12-14T19:24:03.464Z,-4.63
2022-12-14T19:29:06.175Z,-4.51
2022-12-14T19:34:09.820Z,-4.64
2022-12-14T19:39:12.543Z,-4.64
2022-12-14T19:44:15.185Z,-4.71
2022-12-14T19:49:17.957Z,-4.78
2022-12-14T19:54:20.541Z,-4.63
2022-12-14T19:59:23.530Z,-4.63
2022-12-14T20:04:26.769Z,-4.74
2022-12-14T20:09:29.391Z,-4.71
2022-12-14T20:14:32.137Z,-4.70
2022-12-14T20:19:35.439Z,-4.89
2022-12-14T20:24:38.762Z,-4.55
2022-12-14T20:29:41.677Z,-4.41
2022-12-14T20:34:45.175Z,-4.40
2022-12-14T20:39:47.757Z,-4.37
2022-12-14T20:44:50.391Z,-4.52
2022-12-14T20:49:53.063Z,-4.69
2022-12-14T20:54:55.875Z,-5.28
2022-12-14T20:59:59.551Z,-4.96
2022-12-14T21:05:02.252Z,-5.04
2022-12-14T21:10:07.552Z,-5.13
2022-12-14T21:15:11.132Z,-5.13
2022-12-14T21:20:13.773Z,-4.99
2022-12-14T21:25:16.423Z,-4.98
2022-12-14T21:30:19.269Z,-4.89
2022-12-14T21:35:22.045Z,-4.87
2022-12-14T21:40:43.392Z,-5.03
2022-12-14T21:45:46.352Z,-4.97
2022-12-14T21:50:48.976Z,-4.88
2022-12-14T21:55:52.132Z,-4.86
2022-12-14T22:00:54.862Z,-4.63
2022-12-14T22:05:57.458Z,-4.83
2022-12-14T22:11:05.351Z,-4.62
2022-12-14T22:16:08.246Z,-4.68
2022-12-14T22:21:10.795Z,-4.97
2022-12-14T22:26:13.463Z,-5.37
2022-12-14T22:31:16.610Z,-5.24
2022-12-14T22:36:19.200Z,-5.28
2022-12-14T22:41:21.846Z,-5.39
2022-12-14T22:46:26.326Z,-5.36
2022-12-14T22:51:29.368Z,-5.28
2022-12-14T22:56:45.122Z,-5.35
2022-12-14T23:01:50.079Z,-5.35
2022-12-14T23:06:53.928Z,-5.35
2022-12-14T23:12:18.369Z,-5.25
2022-12-14T23:17:44.586Z,-5.29
2022-12-14T23:23:06.062Z,-5.17
2022-12-14T23:28:27.421Z,-4.92
2022-12-14T23:33:48.602Z,-5.11
2022-12-14T23:39:10.129Z,-5.04
2022-12-14T23:44:31.069Z,-4.91
2022-12-14T23:49:52.070Z,-4.74
2022-12-14T23:55:13.323Z,-4.53
